sensor_id;sensor_type;location;lat;lon;timestamp;P1;durP1;ratioP1;P2;durP2;ratioP2
9763;SDS011;4921;43.214;27.936;2023-04-25T00:00:00;15.50;;;5.53;;
9763;SDS011;4921;43.214;27.936;2023-04-25T00:02:28;10.57;;;5.27;;
9763;SDS011;4921;43.214;27.936;2023-04-25T00:04:56;14.20;;;5.40;;
9763;SDS011;4921;43.214;27.936;2023-04-25T00:07:26;19.50;;;6.27;;
9763;SDS011;4921;43.214;27.936;2023-04-25T00:09:53;20.07;;;5.53;;
9763;SDS011;4921;43.214;27.936;2023-04-25T00:12:20;16.10;;;5.87;;
9763;SDS011;4921;43.214;27.936;2023-04-25T00:14:48;13.77;;;5.47;;
9763;SDS011;4921;43.214;27.936;2023-04-25T00:17:16;17.03;;;5.50;;
9763;SDS011;4921;43.214;27.936;2023-04-25T00:19:44;14.37;;;5.80;;
9763;SDS011;4921;43.214;27.936;2023-04-25T00:22:11;14.00;;;5.27;;
9763;SDS011;4921;43.214;27.936;2023-04-25T00:24:39;11.33;;;5.27;;
9763;SDS011;4921;43.214;27.936;2023-04-25T00:27:06;15.83;;;6.37;;
9763;SDS011;4921;43.214;27.936;2023-04-25T00:29:34;12.67;;;6.27;;
9763;SDS011;4921;43.214;27.936;2023-04-25T00:32:01;21.73;;;7.67;;
9763;SDS011;4921;43.214;27.936;2023-04-25T00:34:27;13.37;;;6.57;;
9763;SDS011;4921;43.214;27.936;2023-04-25T00:36:54;11.13;;;5.30;;
9763;SDS011;4921;43.214;27.936;2023-04-25T00:39:22;17.23;;;6.50;;
9763;SDS011;4921;43.214;27.936;2023-04-25T00:41:50;13.97;;;7.23;;
9763;SDS011;4921;43.214;27.936;2023-04-25T00:44:19;18.03;;;5.77;;
9763;SDS011;4921;43.214;27.936;2023-04-25T00:46:47;18.90;;;6.10;;
9763;SDS011;4921;43.214;27.936;2023-04-25T00:49:13;14.20;;;5.63;;
9763;SDS011;4921;43.214;27.936;2023-04-25T00:51:42;13.33;;;5.87;;
9763;SDS011;4921;43.214;27.936;2023-04-25T00:54:10;14.97;;;5.90;;
9763;SDS011;4921;43.214;27.936;2023-04-25T00:56:38;12.53;;;5.93;;
9763;SDS011;4921;43.214;27.936;2023-04-25T00:59:07;13.80;;;5.93;;
9763;SDS011;4921;43.214;27.936;2023-04-25T01:01:36;15.77;;;5.60;;
9763;SDS011;4921;43.214;27.936;2023-04-25T01:04:04;21.90;;;5.53;;
9763;SDS011;4921;43.214;27.936;2023-04-25T01:06:32;16.10;;;5.90;;
9763;SDS011;4921;43.214;27.936;2023-04-25T01:08:59;12.63;;;5.57;;
9763;SDS011;4921;43.214;27.936;2023-04-25T01:11:26;14.10;;;6.00;;
9763;SDS011;4921;43.214;27.936;2023-04-25T01:13:53;10.70;;;5.43;;
9763;SDS011;4921;43.214;27.936;2023-04-25T01:16:21;15.63;;;5.93;;
9763;SDS011;4921;43.214;27.936;2023-04-25T01:18:49;15.83;;;5.47;;
9763;SDS011;4921;43.214;27.936;2023-04-25T01:21:18;11.30;;;5.60;;
9763;SDS011;4921;43.214;27.936;2023-04-25T01:23:45;16.63;;;5.77;;
9763;SDS011;4921;43.214;27.936;2023-04-25T01:26:12;14.83;;;5.90;;
9763;SDS011;4921;43.214;27.936;2023-04-25T01:28:39;15.17;;;6.50;;
9763;SDS011;4921;43.214;27.936;2023-04-25T01:31:07;15.13;;;6.17;;
9763;SDS011;4921;43.214;27.936;2023-04-25T01:33:34;13.83;;;5.40;;
9763;SDS011;4921;43.214;27.936;2023-04-25T01:36:01;15.77;;;5.70;;
9763;SDS011;4921;43.214;27.936;2023-04-25T01:38:30;11.50;;;5.27;;
9763;SDS011;4921;43.214;27.936;2023-04-25T01:40:58;12.70;;;5.93;;
9763;SDS011;4921;43.214;27.936;2023-04-25T01:43:25;11.97;;;5.80;;
9763;SDS011;4921;43.214;27.936;2023-04-25T01:45:52;14.00;;;5.77;;
9763;SDS011;4921;43.214;27.936;2023-04-25T01:48:19;19.83;;;5.90;;
9763;SDS011;4921;43.214;27.936;2023-04-25T01:50:47;9.97;;;5.40;;
9763;SDS011;4921;43.214;27.936;2023-04-25T01:53:14;15.00;;;5.40;;
9763;SDS011;4921;43.214;27.936;2023-04-25T01:55:43;12.67;;;5.47;;
9763;SDS011;4921;43.214;27.936;2023-04-25T01:58:10;18.63;;;5.73;;
9763;SDS011;4921;43.214;27.936;2023-04-25T02:00:38;13.57;;;5.67;;
9763;SDS011;4921;43.214;27.936;2023-04-25T02:03:06;18.03;;;6.23;;
9763;SDS011;4921;43.214;27.936;2023-04-25T02:05:36;16.77;;;6.30;;
9763;SDS011;4921;43.214;27.936;2023-04-25T02:08:04;12.47;;;6.20;;
9763;SDS011;4921;43.214;27.936;2023-04-25T02:10:32;15.27;;;6.33;;
9763;SDS011;4921;43.214;27.936;2023-04-25T02:13:00;17.97;;;5.93;;
9763;SDS011;4921;43.214;27.936;2023-04-25T02:15:27;13.87;;;6.30;;
9763;SDS011;4921;43.214;27.936;2023-04-25T02:17:54;20.03;;;6.07;;
9763;SDS011;4921;43.214;27.936;2023-04-25T02:20:22;15.43;;;6.87;;
9763;SDS011;4921;43.214;27.936;2023-04-25T02:22:50;17.43;;;6.27;;
9763;SDS011;4921;43.214;27.936;2023-04-25T02:25:17;15.00;;;6.60;;
9763;SDS011;4921;43.214;27.936;2023-04-25T02:27:46;16.80;;;6.37;;
9763;SDS011;4921;43.214;27.936;2023-04-25T02:30:15;13.50;;;6.53;;
9763;SDS011;4921;43.214;27.936;2023-04-25T02:32:42;14.80;;;6.10;;
9763;SDS011;4921;43.214;27.936;2023-04-25T02:35:09;12.27;;;6.63;;
9763;SDS011;4921;43.214;27.936;2023-04-25T02:37:37;18.57;;;6.30;;
9763;SDS011;4921;43.214;27.936;2023-04-25T02:40:05;15.73;;;7.03;;
9763;SDS011;4921;43.214;27.936;2023-04-25T02:42:33;16.17;;;6.40;;
9763;SDS011;4921;43.214;27.936;2023-04-25T02:45:00;19.00;;;6.47;;
9763;SDS011;4921;43.214;27.936;2023-04-25T02:47:28;13.60;;;6.73;;
9763;SDS011;4921;43.214;27.936;2023-04-25T02:49:55;14.73;;;7.23;;
9763;SDS011;4921;43.214;27.936;2023-04-25T02:52:23;23.90;;;7.20;;
9763;SDS011;4921;43.214;27.936;2023-04-25T02:54:49;18.60;;;6.43;;
9763;SDS011;4921;43.214;27.936;2023-04-25T02:57:17;17.97;;;6.43;;
9763;SDS011;4921;43.214;27.936;2023-04-25T02:59:43;14.50;;;7.27;;
9763;SDS011;4921;43.214;27.936;2023-04-25T03:02:10;23.30;;;6.90;;
9763;SDS011;4921;43.214;27.936;2023-04-25T03:04:39;17.83;;;7.00;;
9763;SDS011;4921;43.214;27.936;2023-04-25T03:07:06;18.60;;;6.63;;
9763;SDS011;4921;43.214;27.936;2023-04-25T03:09:33;18.40;;;6.50;;
9763;SDS011;4921;43.214;27.936;2023-04-25T03:12:00;16.63;;;6.60;;
9763;SDS011;4921;43.214;27.936;2023-04-25T03:14:27;17.93;;;6.77;;
9763;SDS011;4921;43.214;27.936;2023-04-25T03:16:54;17.40;;;7.30;;
9763;SDS011;4921;43.214;27.936;2023-04-25T03:19:21;16.63;;;6.40;;
9763;SDS011;4921;43.214;27.936;2023-04-25T03:21:49;12.90;;;7.03;;
9763;SDS011;4921;43.214;27.936;2023-04-25T03:24:16;18.20;;;7.47;;
9763;SDS011;4921;43.214;27.936;2023-04-25T03:26:43;12.47;;;7.10;;
9763;SDS011;4921;43.214;27.936;2023-04-25T03:29:10;17.20;;;7.43;;
9763;SDS011;4921;43.214;27.936;2023-04-25T03:31:37;15.30;;;7.87;;
9763;SDS011;4921;43.214;27.936;2023-04-25T03:34:04;23.50;;;7.83;;
9763;SDS011;4921;43.214;27.936;2023-04-25T03:36:31;16.33;;;7.23;;
9763;SDS011;4921;43.214;27.936;2023-04-25T03:39:00;17.77;;;7.37;;
9763;SDS011;4921;43.214;27.936;2023-04-25T03:41:27;17.70;;;7.47;;
9763;SDS011;4921;43.214;27.936;2023-04-25T03:43:54;15.53;;;7.50;;
9763;SDS011;4921;43.214;27.936;2023-04-25T03:46:21;19.97;;;10.07;;
9763;SDS011;4921;43.214;27.936;2023-04-25T03:48:48;19.33;;;8.23;;
9763;SDS011;4921;43.214;27.936;2023-04-25T03:51:15;27.67;;;8.80;;
9763;SDS011;4921;43.214;27.936;2023-04-25T03:53:42;20.67;;;8.77;;
9763;SDS011;4921;43.214;27.936;2023-04-25T03:56:10;15.93;;;8.70;;
9763;SDS011;4921;43.214;27.936;2023-04-25T03:58:37;20.90;;;8.90;;
9763;SDS011;4921;43.214;27.936;2023-04-25T04:01:04;25.10;;;8.73;;
9763;SDS011;4921;43.214;27.936;2023-04-25T04:03:32;22.40;;;8.10;;
9763;SDS011;4921;43.214;27.936;2023-04-25T04:06:00;22.10;;;8.63;;
9763;SDS011;4921;43.214;27.936;2023-04-25T04:08:29;23.47;;;8.87;;
9763;SDS011;4921;43.214;27.936;2023-04-25T04:10:56;20.63;;;8.90;;
9763;SDS011;4921;43.214;27.936;2023-04-25T04:13:25;22.27;;;8.77;;
9763;SDS011;4921;43.214;27.936;2023-04-25T04:15:52;17.73;;;8.93;;
9763;SDS011;4921;43.214;27.936;2023-04-25T04:18:19;20.43;;;9.13;;
9763;SDS011;4921;43.214;27.936;2023-04-25T04:20:46;20.67;;;8.80;;
9763;SDS011;4921;43.214;27.936;2023-04-25T04:23:13;19.30;;;8.60;;
9763;SDS011;4921;43.214;27.936;2023-04-25T04:25:40;21.83;;;8.90;;
9763;SDS011;4921;43.214;27.936;2023-04-25T04:28:07;25.13;;;8.47;;
9763;SDS011;4921;43.214;27.936;2023-04-25T04:30:35;22.00;;;8.67;;
9763;SDS011;4921;43.214;27.936;2023-04-25T04:33:02;17.10;;;7.47;;
9763;SDS011;4921;43.214;27.936;2023-04-25T04:35:29;21.20;;;8.27;;
9763;SDS011;4921;43.214;27.936;2023-04-25T04:37:56;21.20;;;7.97;;
9763;SDS011;4921;43.214;27.936;2023-04-25T04:40:23;22.90;;;8.40;;
9763;SDS011;4921;43.214;27.936;2023-04-25T04:42:50;17.37;;;8.30;;
9763;SDS011;4921;43.214;27.936;2023-04-25T04:45:18;18.70;;;7.87;;
9763;SDS011;4921;43.214;27.936;2023-04-25T04:47:47;19.70;;;9.23;;
9763;SDS011;4921;43.214;27.936;2023-04-25T04:50:14;15.57;;;8.33;;
9763;SDS011;4921;43.214;27.936;2023-04-25T04:52:41;17.93;;;8.47;;
9763;SDS011;4921;43.214;27.936;2023-04-25T04:55:09;20.07;;;7.93;;
9763;SDS011;4921;43.214;27.936;2023-04-25T04:57:35;17.20;;;7.97;;
9763;SDS011;4921;43.214;27.936;2023-04-25T05:00:04;22.33;;;8.47;;
9763;SDS011;4921;43.214;27.936;2023-04-25T05:02:36;18.20;;;7.67;;
9763;SDS011;4921;43.214;27.936;2023-04-25T05:05:05;15.80;;;7.10;;
9763;SDS011;4921;43.214;27.936;2023-04-25T05:07:32;19.53;;;6.83;;
9763;SDS011;4921;43.214;27.936;2023-04-25T05:09:59;15.47;;;6.80;;
9763;SDS011;4921;43.214;27.936;2023-04-25T05:12:26;13.50;;;7.30;;
9763;SDS011;4921;43.214;27.936;2023-04-25T05:14:53;16.00;;;7.07;;
9763;SDS011;4921;43.214;27.936;2023-04-25T05:17:20;16.87;;;6.90;;
9763;SDS011;4921;43.214;27.936;2023-04-25T05:19:47;12.00;;;6.80;;
9763;SDS011;4921;43.214;27.936;2023-04-25T05:22:15;13.83;;;7.20;;
9763;SDS011;4921;43.214;27.936;2023-04-25T05:24:42;16.97;;;7.40;;
9763;SDS011;4921;43.214;27.936;2023-04-25T05:27:09;13.93;;;6.77;;
9763;SDS011;4921;43.214;27.936;2023-04-25T05:29:36;18.93;;;7.13;;
9763;SDS011;4921;43.214;27.936;2023-04-25T05:32:04;13.70;;;7.10;;
9763;SDS011;4921;43.214;27.936;2023-04-25T05:34:32;11.63;;;6.40;;
9763;SDS011;4921;43.214;27.936;2023-04-25T05:36:59;14.07;;;6.80;;
9763;SDS011;4921;43.214;27.936;2023-04-25T05:39:28;13.37;;;6.60;;
9763;SDS011;4921;43.214;27.936;2023-04-25T05:41:55;13.43;;;6.30;;
9763;SDS011;4921;43.214;27.936;2023-04-25T05:44:21;17.80;;;7.87;;
9763;SDS011;4921;43.214;27.936;2023-04-25T05:46:48;14.43;;;7.10;;
9763;SDS011;4921;43.214;27.936;2023-04-25T05:49:15;12.67;;;6.20;;
9763;SDS011;4921;43.214;27.936;2023-04-25T05:51:42;16.07;;;6.27;;
9763;SDS011;4921;43.214;27.936;2023-04-25T05:54:09;17.10;;;6.73;;
9763;SDS011;4921;43.214;27.936;2023-04-25T05:56:37;14.73;;;6.70;;
9763;SDS011;4921;43.214;27.936;2023-04-25T05:59:04;10.83;;;5.60;;
9763;SDS011;4921;43.214;27.936;2023-04-25T06:01:31;13.13;;;5.37;;
9763;SDS011;4921;43.214;27.936;2023-04-25T06:03:58;17.23;;;6.80;;
9763;SDS011;4921;43.214;27.936;2023-04-25T06:06:25;19.30;;;6.57;;
9763;SDS011;4921;43.214;27.936;2023-04-25T06:08:53;16.20;;;6.27;;
9763;SDS011;4921;43.214;27.936;2023-04-25T06:11:20;10.00;;;5.97;;
9763;SDS011;4921;43.214;27.936;2023-04-25T06:13:48;15.43;;;6.43;;
9763;SDS011;4921;43.214;27.936;2023-04-25T06:16:15;10.87;;;6.13;;
9763;SDS011;4921;43.214;27.936;2023-04-25T06:18:42;16.33;;;7.13;;
9763;SDS011;4921;43.214;27.936;2023-04-25T06:21:09;16.10;;;6.77;;
9763;SDS011;4921;43.214;27.936;2023-04-25T06:23:36;12.27;;;6.40;;
9763;SDS011;4921;43.214;27.936;2023-04-25T06:26:03;15.93;;;7.00;;
9763;SDS011;4921;43.214;27.936;2023-04-25T06:28:30;14.03;;;7.07;;
9763;SDS011;4921;43.214;27.936;2023-04-25T06:30:58;14.87;;;6.83;;
9763;SDS011;4921;43.214;27.936;2023-04-25T06:33:25;13.23;;;6.40;;
9763;SDS011;4921;43.214;27.936;2023-04-25T06:35:52;13.50;;;6.07;;
9763;SDS011;4921;43.214;27.936;2023-04-25T06:38:19;12.37;;;6.30;;
9763;SDS011;4921;43.214;27.936;2023-04-25T06:40:46;14.07;;;6.57;;
9763;SDS011;4921;43.214;27.936;2023-04-25T06:43:13;12.40;;;6.40;;
9763;SDS011;4921;43.214;27.936;2023-04-25T06:45:40;13.37;;;6.80;;
9763;SDS011;4921;43.214;27.936;2023-04-25T06:48:08;9.60;;;5.53;;
9763;SDS011;4921;43.214;27.936;2023-04-25T06:50:35;14.83;;;5.83;;
9763;SDS011;4921;43.214;27.936;2023-04-25T06:53:02;16.33;;;7.50;;
9763;SDS011;4921;43.214;27.936;2023-04-25T06:55:29;12.97;;;6.30;;
9763;SDS011;4921;43.214;27.936;2023-04-25T06:57:56;14.80;;;6.70;;
9763;SDS011;4921;43.214;27.936;2023-04-25T07:00:23;15.90;;;7.47;;
9763;SDS011;4921;43.214;27.936;2023-04-25T07:02:50;14.67;;;6.97;;
9763;SDS011;4921;43.214;27.936;2023-04-25T07:05:18;16.50;;;7.17;;
9763;SDS011;4921;43.214;27.936;2023-04-25T07:07:46;12.87;;;7.03;;
9763;SDS011;4921;43.214;27.936;2023-04-25T07:10:14;15.23;;;6.40;;
9763;SDS011;4921;43.214;27.936;2023-04-25T07:12:41;13.33;;;6.27;;
9763;SDS011;4921;43.214;27.936;2023-04-25T07:15:08;9.43;;;6.03;;
9763;SDS011;4921;43.214;27.936;2023-04-25T07:17:36;11.23;;;6.77;;
9763;SDS011;4921;43.214;27.936;2023-04-25T07:20:04;14.57;;;7.20;;
9763;SDS011;4921;43.214;27.936;2023-04-25T07:22:35;10.13;;;6.13;;
9763;SDS011;4921;43.214;27.936;2023-04-25T07:25:01;10.80;;;6.07;;
9763;SDS011;4921;43.214;27.936;2023-04-25T07:27:29;9.97;;;6.23;;
9763;SDS011;4921;43.214;27.936;2023-04-25T07:29:57;20.83;;;7.03;;
9763;SDS011;4921;43.214;27.936;2023-04-25T07:32:25;12.13;;;6.40;;
9763;SDS011;4921;43.214;27.936;2023-04-25T07:34:52;9.83;;;5.93;;
9763;SDS011;4921;43.214;27.936;2023-04-25T07:37:19;10.50;;;6.60;;
9763;SDS011;4921;43.214;27.936;2023-04-25T07:39:47;14.77;;;6.97;;
9763;SDS011;4921;43.214;27.936;2023-04-25T07:42:14;13.43;;;6.93;;
9763;SDS011;4921;43.214;27.936;2023-04-25T07:44:41;12.43;;;5.77;;
9763;SDS011;4921;43.214;27.936;2023-04-25T07:47:08;10.60;;;6.63;;
9763;SDS011;4921;43.214;27.936;2023-04-25T07:49:36;12.73;;;6.87;;
9763;SDS011;4921;43.214;27.936;2023-04-25T07:52:03;9.83;;;7.27;;
9763;SDS011;4921;43.214;27.936;2023-04-25T07:54:31;11.10;;;7.73;;
9763;SDS011;4921;43.214;27.936;2023-04-25T07:56:59;11.13;;;7.47;;
9763;SDS011;4921;43.214;27.936;2023-04-25T07:59:27;10.87;;;7.70;;
9763;SDS011;4921;43.214;27.936;2023-04-25T08:01:54;16.93;;;7.33;;
9763;SDS011;4921;43.214;27.936;2023-04-25T08:04:22;12.00;;;7.23;;
9763;SDS011;4921;43.214;27.936;2023-04-25T08:06:50;11.73;;;7.00;;
9763;SDS011;4921;43.214;27.936;2023-04-25T08:09:18;15.23;;;8.30;;
9763;SDS011;4921;43.214;27.936;2023-04-25T08:11:45;14.83;;;7.73;;
9763;SDS011;4921;43.214;27.936;2023-04-25T08:14:14;11.53;;;8.13;;
9763;SDS011;4921;43.214;27.936;2023-04-25T08:16:41;15.17;;;7.87;;
9763;SDS011;4921;43.214;27.936;2023-04-25T08:19:08;14.83;;;7.57;;
9763;SDS011;4921;43.214;27.936;2023-04-25T08:21:36;15.00;;;7.80;;
9763;SDS011;4921;43.214;27.936;2023-04-25T08:24:03;15.20;;;7.87;;
9763;SDS011;4921;43.214;27.936;2023-04-25T08:26:30;16.60;;;7.73;;
9763;SDS011;4921;43.214;27.936;2023-04-25T08:28:58;13.77;;;8.40;;
9763;SDS011;4921;43.214;27.936;2023-04-25T08:31:26;14.33;;;8.03;;
9763;SDS011;4921;43.214;27.936;2023-04-25T08:33:54;14.33;;;8.13;;
9763;SDS011;4921;43.214;27.936;2023-04-25T08:36:21;13.93;;;7.87;;
9763;SDS011;4921;43.214;27.936;2023-04-25T08:38:48;10.67;;;7.60;;
9763;SDS011;4921;43.214;27.936;2023-04-25T08:41:15;15.50;;;8.00;;
9763;SDS011;4921;43.214;27.936;2023-04-25T08:43:44;13.97;;;7.53;;
9763;SDS011;4921;43.214;27.936;2023-04-25T08:46:13;11.87;;;7.47;;
9763;SDS011;4921;43.214;27.936;2023-04-25T08:48:45;14.97;;;7.97;;
9763;SDS011;4921;43.214;27.936;2023-04-25T08:51:15;14.20;;;7.67;;
9763;SDS011;4921;43.214;27.936;2023-04-25T08:53:46;9.30;;;7.50;;
9763;SDS011;4921;43.214;27.936;2023-04-25T08:56:17;14.13;;;8.00;;
9763;SDS011;4921;43.214;27.936;2023-04-25T08:58:47;9.13;;;6.80;;
9763;SDS011;4921;43.214;27.936;2023-04-25T09:01:15;10.20;;;6.47;;
9763;SDS011;4921;43.214;27.936;2023-04-25T09:03:42;9.43;;;6.23;;
9763;SDS011;4921;43.214;27.936;2023-04-25T09:06:11;7.67;;;6.30;;
9763;SDS011;4921;43.214;27.936;2023-04-25T09:08:38;10.20;;;5.50;;
9763;SDS011;4921;43.214;27.936;2023-04-25T09:11:06;8.67;;;5.57;;
9763;SDS011;4921;43.214;27.936;2023-04-25T09:13:33;12.13;;;7.40;;
9763;SDS011;4921;43.214;27.936;2023-04-25T09:16:00;8.00;;;5.97;;
9763;SDS011;4921;43.214;27.936;2023-04-25T09:18:27;14.40;;;5.83;;
9763;SDS011;4921;43.214;27.936;2023-04-25T09:20:57;8.70;;;6.17;;
9763;SDS011;4921;43.214;27.936;2023-04-25T09:23:38;7.40;;;5.37;;
9763;SDS011;4921;43.214;27.936;2023-04-25T09:26:06;8.33;;;6.00;;
9763;SDS011;4921;43.214;27.936;2023-04-25T09:28:34;8.80;;;5.63;;
9763;SDS011;4921;43.214;27.936;2023-04-25T09:31:02;9.90;;;5.87;;
9763;SDS011;4921;43.214;27.936;2023-04-25T09:33:30;10.07;;;5.57;;
9763;SDS011;4921;43.214;27.936;2023-04-25T09:36:02;5.70;;;5.00;;
9763;SDS011;4921;43.214;27.936;2023-04-25T09:38:30;7.00;;;5.33;;
9763;SDS011;4921;43.214;27.936;2023-04-25T09:40:59;8.00;;;5.70;;
9763;SDS011;4921;43.214;27.936;2023-04-25T09:43:27;8.50;;;5.40;;
9763;SDS011;4921;43.214;27.936;2023-04-25T09:45:54;8.17;;;5.00;;
9763;SDS011;4921;43.214;27.936;2023-04-25T09:48:25;5.40;;;4.83;;
9763;SDS011;4921;43.214;27.936;2023-04-25T09:51:06;7.67;;;4.40;;
9763;SDS011;4921;43.214;27.936;2023-04-25T09:53:34;6.20;;;4.93;;
9763;SDS011;4921;43.214;27.936;2023-04-25T09:56:05;8.27;;;5.20;;
9763;SDS011;4921;43.214;27.936;2023-04-25T09:58:33;6.73;;;4.70;;
9763;SDS011;4921;43.214;27.936;2023-04-25T10:01:02;5.83;;;4.33;;
9763;SDS011;4921;43.214;27.936;2023-04-25T10:03:31;7.20;;;5.17;;
9763;SDS011;4921;43.214;27.936;2023-04-25T10:06:00;8.13;;;4.80;;
9763;SDS011;4921;43.214;27.936;2023-04-25T10:08:29;6.27;;;4.97;;
9763;SDS011;4921;43.214;27.936;2023-04-25T10:10:59;7.83;;;4.93;;
9763;SDS011;4921;43.214;27.936;2023-04-25T10:13:29;8.70;;;4.77;;
9763;SDS011;4921;43.214;27.936;2023-04-25T10:15:58;8.67;;;5.00;;
9763;SDS011;4921;43.214;27.936;2023-04-25T10:18:26;7.93;;;4.93;;
9763;SDS011;4921;43.214;27.936;2023-04-25T10:20:53;10.93;;;5.90;;
9763;SDS011;4921;43.214;27.936;2023-04-25T10:23:21;6.63;;;4.63;;
9763;SDS011;4921;43.214;27.936;2023-04-25T10:25:50;9.40;;;4.67;;
9763;SDS011;4921;43.214;27.936;2023-04-25T10:28:18;5.50;;;4.23;;
9763;SDS011;4921;43.214;27.936;2023-04-25T10:30:59;5.43;;;4.00;;
9763;SDS011;4921;43.214;27.936;2023-04-25T10:33:34;9.27;;;4.70;;
9763;SDS011;4921;43.214;27.936;2023-04-25T10:36:09;6.47;;;4.40;;
9763;SDS011;4921;43.214;27.936;2023-04-25T10:38:37;9.93;;;5.00;;
9763;SDS011;4921;43.214;27.936;2023-04-25T10:41:05;9.17;;;4.83;;
9763;SDS011;4921;43.214;27.936;2023-04-25T10:43:37;7.00;;;4.37;;
9763;SDS011;4921;43.214;27.936;2023-04-25T10:46:19;10.40;;;4.80;;
9763;SDS011;4921;43.214;27.936;2023-04-25T10:48:50;5.83;;;4.73;;
9763;SDS011;4921;43.214;27.936;2023-04-25T10:51:19;8.33;;;4.77;;
9763;SDS011;4921;43.214;27.936;2023-04-25T10:53:47;7.83;;;4.30;;
9763;SDS011;4921;43.214;27.936;2023-04-25T10:56:25;8.73;;;4.37;;
9763;SDS011;4921;43.214;27.936;2023-04-25T10:59:03;6.63;;;4.87;;
9763;SDS011;4921;43.214;27.936;2023-04-25T11:01:36;9.83;;;4.97;;
9763;SDS011;4921;43.214;27.936;2023-04-25T11:04:05;7.17;;;4.87;;
9763;SDS011;4921;43.214;27.936;2023-04-25T11:06:35;9.13;;;5.07;;
9763;SDS011;4921;43.214;27.936;2023-04-25T11:09:16;9.20;;;4.57;;
9763;SDS011;4921;43.214;27.936;2023-04-25T11:11:48;6.53;;;5.30;;
9763;SDS011;4921;43.214;27.936;2023-04-25T11:14:20;9.13;;;5.70;;
9763;SDS011;4921;43.214;27.936;2023-04-25T11:16:48;8.33;;;4.90;;
9763;SDS011;4921;43.214;27.936;2023-04-25T11:19:19;9.27;;;5.63;;
9763;SDS011;4921;43.214;27.936;2023-04-25T11:21:46;9.50;;;5.33;;
9763;SDS011;4921;43.214;27.936;2023-04-25T11:24:13;10.37;;;5.43;;
9763;SDS011;4921;43.214;27.936;2023-04-25T11:26:41;6.80;;;5.53;;
9763;SDS011;4921;43.214;27.936;2023-04-25T11:29:08;11.27;;;5.07;;
9763;SDS011;4921;43.214;27.936;2023-04-25T11:31:36;5.63;;;4.77;;
9763;SDS011;4921;43.214;27.936;2023-04-25T11:34:04;12.50;;;5.67;;
9763;SDS011;4921;43.214;27.936;2023-04-25T11:36:31;7.33;;;5.57;;
9763;SDS011;4921;43.214;27.936;2023-04-25T11:38:58;6.50;;;5.43;;
9763;SDS011;4921;43.214;27.936;2023-04-25T11:41:25;11.30;;;5.70;;
9763;SDS011;4921;43.214;27.936;2023-04-25T11:43:52;7.77;;;5.67;;
9763;SDS011;4921;43.214;27.936;2023-04-25T11:46:19;6.40;;;5.20;;
9763;SDS011;4921;43.214;27.936;2023-04-25T11:48:46;8.93;;;5.33;;
9763;SDS011;4921;43.214;27.936;2023-04-25T11:51:15;7.73;;;5.30;;
9763;SDS011;4921;43.214;27.936;2023-04-25T11:53:42;9.77;;;4.97;;
9763;SDS011;4921;43.214;27.936;2023-04-25T11:56:11;8.63;;;4.93;;
9763;SDS011;4921;43.214;27.936;2023-04-25T11:58:54;9.27;;;4.93;;
9763;SDS011;4921;43.214;27.936;2023-04-25T12:01:26;5.13;;;4.27;;
9763;SDS011;4921;43.214;27.936;2023-04-25T12:03:54;10.93;;;5.43;;
9763;SDS011;4921;43.214;27.936;2023-04-25T12:06:23;10.13;;;4.50;;
9763;SDS011;4921;43.214;27.936;2023-04-25T12:08:59;6.17;;;4.10;;
9763;SDS011;4921;43.214;27.936;2023-04-25T12:11:29;5.37;;;4.20;;
9763;SDS011;4921;43.214;27.936;2023-04-25T12:14:01;8.43;;;4.47;;
9763;SDS011;4921;43.214;27.936;2023-04-25T12:16:29;6.23;;;4.20;;
9763;SDS011;4921;43.214;27.936;2023-04-25T12:18:56;5.87;;;4.13;;
9763;SDS011;4921;43.214;27.936;2023-04-25T12:21:29;7.60;;;4.40;;
9763;SDS011;4921;43.214;27.936;2023-04-25T12:24:07;4.83;;;4.10;;
9763;SDS011;4921;43.214;27.936;2023-04-25T12:29:19;6.17;;;4.73;;
9763;SDS011;4921;43.214;27.936;2023-04-25T12:31:47;7.23;;;4.60;;
9763;SDS011;4921;43.214;27.936;2023-04-25T12:34:15;6.63;;;4.47;;
9763;SDS011;4921;43.214;27.936;2023-04-25T12:36:43;10.63;;;4.87;;
9763;SDS011;4921;43.214;27.936;2023-04-25T12:39:19;6.63;;;4.60;;
9763;SDS011;4921;43.214;27.936;2023-04-25T12:41:48;7.80;;;5.03;;
9763;SDS011;4921;43.214;27.936;2023-04-25T12:44:17;7.77;;;5.17;;
9763;SDS011;4921;43.214;27.936;2023-04-25T12:46:44;6.97;;;5.97;;
9763;SDS011;4921;43.214;27.936;2023-04-25T12:49:11;8.07;;;5.43;;
9763;SDS011;4921;43.214;27.936;2023-04-25T12:51:38;7.27;;;5.30;;
9763;SDS011;4921;43.214;27.936;2023-04-25T12:54:08;11.47;;;5.23;;
9763;SDS011;4921;43.214;27.936;2023-04-25T12:56:35;8.03;;;5.80;;
9763;SDS011;4921;43.214;27.936;2023-04-25T12:59:02;8.50;;;5.30;;
9763;SDS011;4921;43.214;27.936;2023-04-25T13:01:29;10.27;;;5.90;;
9763;SDS011;4921;43.214;27.936;2023-04-25T13:03:57;8.43;;;6.67;;
9763;SDS011;4921;43.214;27.936;2023-04-25T13:06:24;11.33;;;5.67;;
9763;SDS011;4921;43.214;27.936;2023-04-25T13:08:51;9.83;;;6.10;;
9763;SDS011;4921;43.214;27.936;2023-04-25T13:11:19;7.63;;;6.17;;
9763;SDS011;4921;43.214;27.936;2023-04-25T13:13:46;8.60;;;6.43;;
9763;SDS011;4921;43.214;27.936;2023-04-25T13:16:13;8.03;;;6.53;;
9763;SDS011;4921;43.214;27.936;2023-04-25T13:18:40;9.57;;;6.20;;
9763;SDS011;4921;43.214;27.936;2023-04-25T13:21:08;8.27;;;6.73;;
9763;SDS011;4921;43.214;27.936;2023-04-25T13:23:36;9.40;;;5.97;;
9763;SDS011;4921;43.214;27.936;2023-04-25T13:26:04;9.97;;;7.40;;
9763;SDS011;4921;43.214;27.936;2023-04-25T13:28:32;10.23;;;7.40;;
9763;SDS011;4921;43.214;27.936;2023-04-25T13:30:59;9.57;;;7.90;;
9763;SDS011;4921;43.214;27.936;2023-04-25T13:33:26;11.87;;;6.70;;
9763;SDS011;4921;43.214;27.936;2023-04-25T13:35:53;11.47;;;8.03;;
9763;SDS011;4921;43.214;27.936;2023-04-25T13:38:22;13.47;;;8.20;;
9763;SDS011;4921;43.214;27.936;2023-04-25T13:40:49;11.90;;;8.30;;
9763;SDS011;4921;43.214;27.936;2023-04-25T13:43:18;12.07;;;8.70;;
9763;SDS011;4921;43.214;27.936;2023-04-25T13:45:48;14.27;;;8.07;;
9763;SDS011;4921;43.214;27.936;2023-04-25T13:48:15;8.90;;;7.63;;
9763;SDS011;4921;43.214;27.936;2023-04-25T13:50:42;10.47;;;8.33;;
9763;SDS011;4921;43.214;27.936;2023-04-25T13:53:09;13.90;;;8.30;;
9763;SDS011;4921;43.214;27.936;2023-04-25T13:55:37;13.47;;;9.30;;
9763;SDS011;4921;43.214;27.936;2023-04-25T13:58:04;13.30;;;9.07;;
9763;SDS011;4921;43.214;27.936;2023-04-25T14:00:33;12.27;;;8.43;;
9763;SDS011;4921;43.214;27.936;2023-04-25T14:03:04;12.90;;;9.27;;
9763;SDS011;4921;43.214;27.936;2023-04-25T14:05:32;13.43;;;9.90;;
9763;SDS011;4921;43.214;27.936;2023-04-25T14:08:03;12.53;;;9.30;;
9763;SDS011;4921;43.214;27.936;2023-04-25T14:10:31;13.23;;;9.40;;
9763;SDS011;4921;43.214;27.936;2023-04-25T14:12:58;13.87;;;9.50;;
9763;SDS011;4921;43.214;27.936;2023-04-25T14:15:25;13.20;;;9.70;;
9763;SDS011;4921;43.214;27.936;2023-04-25T14:17:52;14.53;;;9.87;;
9763;SDS011;4921;43.214;27.936;2023-04-25T14:20:21;19.63;;;10.63;;
9763;SDS011;4921;43.214;27.936;2023-04-25T14:22:49;18.83;;;11.03;;
9763;SDS011;4921;43.214;27.936;2023-04-25T14:25:17;13.47;;;10.10;;
9763;SDS011;4921;43.214;27.936;2023-04-25T14:27:44;15.20;;;11.03;;
9763;SDS011;4921;43.214;27.936;2023-04-25T14:30:14;15.37;;;9.90;;
9763;SDS011;4921;43.214;27.936;2023-04-25T14:32:41;10.73;;;9.63;;
9763;SDS011;4921;43.214;27.936;2023-04-25T14:35:09;16.53;;;9.13;;
9763;SDS011;4921;43.214;27.936;2023-04-25T14:37:37;12.63;;;9.10;;
9763;SDS011;4921;43.214;27.936;2023-04-25T14:40:04;12.73;;;9.60;;
9763;SDS011;4921;43.214;27.936;2023-04-25T14:42:34;14.27;;;9.07;;
9763;SDS011;4921;43.214;27.936;2023-04-25T14:45:01;15.23;;;9.10;;
9763;SDS011;4921;43.214;27.936;2023-04-25T14:47:28;10.20;;;8.90;;
9763;SDS011;4921;43.214;27.936;2023-04-25T14:49:56;9.97;;;8.90;;
9763;SDS011;4921;43.214;27.936;2023-04-25T14:52:23;11.33;;;8.00;;
9763;SDS011;4921;43.214;27.936;2023-04-25T14:54:52;11.57;;;8.03;;
9763;SDS011;4921;43.214;27.936;2023-04-25T14:57:19;9.90;;;7.47;;